createdAt,value
2023-05-03T00:00:29.535Z,101727.72
2023-05-03T00:03:14.623Z,101728.53
2023-05-03T00:05:43.457Z,101726.78
2023-05-03T00:08:12.511Z,101728.47
2023-05-03T00:10:41.538Z,101719.66
2023-05-03T00:13:10.700Z,101725.00
2023-05-03T00:15:39.731Z,101719.66
2023-05-03T00:18:08.997Z,101725.84
2023-05-03T00:20:39.272Z,101733.72
2023-05-03T00:23:08.880Z,101721.38
2023-05-03T00:25:37.635Z,101732.81
2023-05-03T00:28:06.850Z,101719.63
2023-05-03T00:30:35.648Z,101721.28
2023-05-03T00:33:05.023Z,101726.53
2023-05-03T00:35:33.998Z,101727.38
2023-05-03T00:38:04.862Z,101722.06
2023-05-03T00:40:34.126Z,101732.56
2023-05-03T00:43:03.235Z,101729.88
2023-05-03T00:45:34.123Z,101723.75
2023-05-03T00:48:03.432Z,101723.69
2023-05-03T00:50:32.322Z,101729.81
2023-05-03T00:53:01.804Z,101730.66
2023-05-03T00:55:32.655Z,101732.38
2023-05-03T00:58:01.856Z,101730.59
2023-05-03T01:00:30.681Z,101732.34
2023-05-03T01:02:59.956Z,101734.06
2023-05-03T01:05:30.223Z,101733.13
2023-05-03T01:08:03.249Z,101724.31
2023-05-03T01:10:39.590Z,101733.94
2023-05-03T01:13:13.269Z,101733.91
2023-05-03T01:15:47.047Z,101725.97
2023-05-03T01:18:17.651Z,101726.75
2023-05-03T01:20:48.677Z,101732.88
2023-05-03T01:23:22.881Z,101729.34
2023-05-03T01:25:54.524Z,101721.38
2023-05-03T01:28:23.718Z,101731.91
2023-05-03T01:30:55.651Z,101728.31
2023-05-03T01:33:27.586Z,101731.78
2023-05-03T01:36:01.221Z,101720.31
2023-05-03T01:38:34.243Z,101724.63
2023-05-03T01:41:07.718Z,101726.38
2023-05-03T01:43:37.323Z,101732.53
2023-05-03T01:46:06.264Z,101728.97
2023-05-03T01:48:35.535Z,101722.78
2023-05-03T01:51:05.972Z,101733.28
2023-05-03T01:53:35.158Z,101722.69
2023-05-03T01:56:05.453Z,101731.50
2023-05-03T01:58:35.456Z,101731.44
2023-05-03T02:01:05.660Z,101726.16
2023-05-03T02:03:35.140Z,101721.72
2023-05-03T02:06:03.947Z,101723.44
2023-05-03T02:08:33.227Z,101723.38
2023-05-03T02:11:02.111Z,101727.78
2023-05-03T02:13:33.057Z,101724.22
2023-05-03T02:16:02.170Z,101726.81
2023-05-03T02:18:32.351Z,101721.56
2023-05-03T02:21:01.258Z,101723.28
2023-05-03T02:23:30.271Z,101724.13
2023-05-03T02:25:59.196Z,101718.84
2023-05-03T02:28:28.221Z,101717.97
2023-05-03T02:31:17.135Z,101713.56
2023-05-03T02:33:47.699Z,101711.78
2023-05-03T02:36:16.695Z,101716.09
2023-05-03T02:38:46.953Z,101709.91
2023-05-03T02:41:15.903Z,101713.44
2023-05-03T02:43:45.125Z,101717.97
2023-05-03T02:46:15.043Z,101723.44
2023-05-03T02:48:44.257Z,101736.69
2023-05-03T02:51:15.120Z,101730.66
2023-05-03T02:53:44.344Z,101734.19
2023-05-03T02:56:13.245Z,101731.56
2023-05-03T02:58:42.327Z,101734.19
2023-05-03T03:01:12.027Z,101735.94
2023-05-03T03:03:42.258Z,101743.91
2023-05-03T03:06:11.215Z,101744.88
2023-05-03T03:08:42.266Z,101743.13
2023-05-03T03:11:11.534Z,101746.66
2023-05-03T03:13:41.349Z,101751.13
2023-05-03T03:16:11.482Z,101752.97
2023-05-03T03:18:40.735Z,101745.09
2023-05-03T03:21:10.419Z,101753.06
2023-05-03T03:23:39.854Z,101746.09
2023-05-03T03:26:10.118Z,101752.28
2023-05-03T03:28:39.324Z,101749.75
2023-05-03T03:31:12.304Z,101755.09
2023-05-03T03:33:42.626Z,101763.09
2023-05-03T03:36:16.866Z,101759.66
2023-05-03T03:38:48.718Z,101757.09
2023-05-03T03:41:18.975Z,101767.75
2023-05-03T03:43:48.608Z,101767.81
2023-05-03T03:46:21.241Z,101765.22
2023-05-03T03:48:54.430Z,101775.03
2023-05-03T03:51:24.663Z,101776.00
2023-05-03T03:53:54.428Z,101776.06
2023-05-03T03:56:26.939Z,101776.13
2023-05-03T03:59:00.873Z,101778.00
2023-05-03T04:01:29.864Z,101775.47
2023-05-03T04:03:59.362Z,101784.34
2023-05-03T04:06:28.977Z,101783.59
2023-05-03T04:08:59.586Z,101781.91
2023-05-03T04:11:30.017Z,101779.38
2023-05-03T04:14:04.505Z,101788.25
2023-05-03T04:16:34.769Z,101793.59
2023-05-03T04:19:06.226Z,101793.69
2023-05-03T04:21:38.290Z,101792.00
2023-05-03T04:24:07.938Z,101797.34
2023-05-03T04:26:38.285Z,101806.22
2023-05-03T04:29:20.028Z,101799.16
2023-05-03T04:31:49.475Z,101800.97
2023-05-03T04:34:19.567Z,101801.84
2023-05-03T04:36:52.060Z,101808.94
2023-05-03T04:39:22.122Z,101801.84
2023-05-03T04:41:52.500Z,101802.72
2023-05-03T04:44:22.415Z,101810.66
2023-05-03T04:46:52.349Z,101815.03
2023-05-03T04:49:21.799Z,101815.88
2023-05-03T04:51:50.677Z,101815.00
2023-05-03T04:54:21.159Z,101819.34
2023-05-03T04:56:50.552Z,101819.31
2023-05-03T04:59:22.674Z,101820.09
2023-05-03T05:01:52.005Z,101829.78
2023-05-03T05:04:21.294Z,101829.72
2023-05-03T05:06:52.897Z,101835.88
2023-05-03T05:09:26.638Z,101831.38
2023-05-03T05:11:58.351Z,101830.34
2023-05-03T05:14:34.840Z,101824.94
2023-05-03T05:17:04.878Z,101834.63
2023-05-03T05:19:34.064Z,101831.88
2023-05-03T05:22:03.356Z,101827.34
2023-05-03T05:24:41.930Z,101822.84
2023-05-03T05:27:13.376Z,101820.97
2023-05-03T05:29:44.459Z,101827.97
2023-05-03T05:32:14.090Z,101832.31
2023-05-03T05:34:45.785Z,101834.94
2023-05-03T05:37:18.947Z,101835.66
2023-05-03T05:39:49.915Z,101839.19
2023-05-03T05:42:21.292Z,101842.63
2023-05-03T05:44:52.425Z,101839.88
2023-05-03T05:47:22.771Z,101840.66
2023-05-03T05:49:55.110Z,101846.69
2023-05-03T05:52:24.246Z,101844.00
2023-05-03T05:54:53.715Z,101839.50
2023-05-03T05:57:24.294Z,101845.66
2023-05-03T05:59:55.302Z,101835.81
2023-05-03T06:02:25.213Z,101847.34
2023-05-03T06:04:54.555Z,101856.09
2023-05-03T06:07:25.194Z,101855.94
2023-05-03T06:09:54.460Z,101852.28
2023-05-03T06:12:24.053Z,101854.00
2023-05-03T06:15:02.468Z,101853.00
2023-05-03T06:17:38.988Z,101857.28
2023-05-03T06:20:12.049Z,101850.91
2023-05-03T06:22:42.490Z,101849.97
2023-05-03T06:25:16.289Z,101854.25
2023-05-03T06:27:49.893Z,101856.72
2023-05-03T06:30:23.824Z,101864.59
2023-05-03T06:32:53.415Z,101865.38
2023-05-03T06:35:23.125Z,101857.22
2023-05-03T06:37:52.204Z,101865.91
2023-05-03T06:40:24.778Z,101874.66
2023-05-03T06:42:53.628Z,101868.19
2023-05-03T06:45:35.545Z,101869.81
2023-05-03T06:48:04.946Z,101870.59
2023-05-03T06:50:34.027Z,101875.75
2023-05-03T06:53:03.145Z,101871.16
2023-05-03T06:55:33.048Z,101871.06
2023-05-03T06:58:02.151Z,101871.75
2023-05-03T07:00:31.299Z,101866.31
2023-05-03T07:03:01.781Z,101872.31
2023-05-03T07:05:31.410Z,101880.22
2023-05-03T07:08:00.153Z,101874.84
2023-05-03T07:10:31.250Z,101882.78
2023-05-03T07:13:00.390Z,101882.69
2023-05-03T07:15:29.636Z,101879.88
2023-05-03T07:17:58.678Z,101897.50
2023-05-03T07:20:29.338Z,101887.53
2023-05-03T07:22:58.658Z,101893.66
2023-05-03T07:25:27.838Z,101881.03
2023-05-03T07:27:57.047Z,101897.75
2023-05-03T07:30:26.240Z,101887.84
2023-05-03T07:32:55.514Z,101888.59
2023-05-03T07:35:26.738Z,101895.47
2023-05-03T07:37:57.822Z,101887.38
2023-05-03T07:40:28.812Z,101906.94
2023-05-03T07:42:57.918Z,101907.66
2023-05-03T07:45:27.184Z,101913.66
2023-05-03T07:47:56.612Z,101916.22
2023-05-03T07:50:25.875Z,101915.22
2023-05-03T07:52:55.991Z,101910.47
2023-05-03T07:55:26.831Z,101906.66
2023-05-03T07:57:59.273Z,101914.47
2023-05-03T08:00:28.622Z,101911.63
2023-05-03T08:02:58.901Z,101914.97
2023-05-03T08:05:29.588Z,101910.31
2023-05-03T08:07:58.378Z,101919.25
2023-05-03T08:10:28.842Z,101924.63
2023-05-03T08:12:57.717Z,101922.59
2023-05-03T08:15:26.797Z,101925.22
2023-05-03T08:17:55.772Z,101927.78
2023-05-03T08:20:27.272Z,101925.88
2023-05-03T08:22:56.912Z,101925.75
2023-05-03T08:25:26.177Z,101933.56
2023-05-03T08:27:56.739Z,101932.59
2023-05-03T08:30:26.821Z,101927.94
2023-05-03T08:32:55.782Z,101945.72
2023-05-03T08:35:25.386Z,101942.81
2023-05-03T08:37:54.303Z,101944.44
2023-05-03T08:40:24.069Z,101935.38
2023-05-03T08:42:53.901Z,101947.78
2023-05-03T08:45:24.785Z,101940.41
2023-05-03T08:47:55.314Z,101952.94
2023-05-03T08:50:25.990Z,101951.97
2023-05-03T08:52:54.916Z,101943.81
2023-05-03T08:55:23.935Z,101948.06
2023-05-03T08:57:52.896Z,101955.19
2023-05-03T09:00:28.528Z,101960.47
2023-05-03T09:02:57.494Z,101964.81
2023-05-03T09:05:39.011Z,101969.16
2023-05-03T09:08:09.531Z,101965.50
2023-05-03T09:10:39.606Z,101968.81
2023-05-03T09:13:10.414Z,101969.56
2023-05-03T09:15:41.385Z,101973.97
2023-05-03T09:18:11.945Z,101972.09
2023-05-03T09:20:42.453Z,101968.41
2023-05-03T09:23:11.627Z,101973.50
2023-05-03T09:25:44.886Z,101970.53
2023-05-03T09:28:13.906Z,101975.78
2023-05-03T09:30:44.559Z,101964.72
2023-05-03T09:33:19.286Z,101967.28
2023-05-03T09:35:56.999Z,101962.66
2023-05-03T09:38:29.281Z,101964.25
2023-05-03T09:40:58.661Z,101951.50
2023-05-03T09:43:27.439Z,101955.13
2023-05-03T09:46:08.989Z,101973.81
2023-05-03T09:48:37.953Z,101961.94
2023-05-03T09:51:07.829Z,101973.31
2023-05-03T09:53:37.519Z,101973.16
2023-05-03T09:56:09.065Z,101968.53
2023-05-03T09:58:37.941Z,101973.59
2023-05-03T10:01:09.896Z,101977.13
2023-05-03T10:03:41.057Z,101967.03
2023-05-03T10:06:17.194Z,101981.09
2023-05-03T10:08:49.700Z,101985.56
2023-05-03T10:11:19.605Z,101983.78
2023-05-03T10:13:48.614Z,101972.81
2023-05-03T10:16:22.021Z,101968.06
2023-05-03T10:18:55.044Z,101977.47
2023-05-03T10:21:29.143Z,101973.66
2023-05-03T10:24:11.001Z,101976.34
2023-05-03T10:26:41.461Z,101979.69
2023-05-03T10:29:29.259Z,101989.50
2023-05-03T10:32:01.024Z,101978.72
2023-05-03T10:34:32.394Z,101977.69
2023-05-03T10:37:02.933Z,101979.28
2023-05-03T10:39:32.497Z,101968.44
2023-05-03T10:42:04.310Z,101962.97
2023-05-03T10:44:36.583Z,101969.97
2023-05-03T10:47:18.864Z,101980.44
2023-05-03T10:49:47.657Z,101974.81
2023-05-03T10:52:35.195Z,101968.50
2023-05-03T10:55:10.118Z,101971.94
2023-05-03T10:57:40.647Z,101977.97
2023-05-03T11:00:13.405Z,101977.91
2023-05-03T11:02:48.451Z,101977.31
2023-05-03T11:05:18.683Z,101975.44
2023-05-03T11:07:49.364Z,101979.09
2023-05-03T11:10:20.877Z,101968.78
2023-05-03T11:12:50.674Z,101977.38
2023-05-03T11:15:19.541Z,101980.78
2023-05-03T11:17:50.030Z,101984.03
2023-05-03T11:20:21.200Z,101995.53
2023-05-03T11:22:51.357Z,101971.09
2023-05-03T11:25:20.158Z,101983.25
2023-05-03T11:27:51.364Z,101979.63
2023-05-03T11:30:20.202Z,101994.09
2023-05-03T11:32:51.921Z,101994.53
2023-05-03T11:35:26.433Z,101993.47
2023-05-03T11:37:56.806Z,101992.38
2023-05-03T11:40:26.218Z,101989.56
2023-05-03T11:42:56.084Z,101994.81
2023-05-03T11:45:25.894Z,101997.03
2023-05-03T11:47:57.199Z,101995.13
2023-05-03T11:50:51.553Z,102002.16
2023-05-03T11:53:22.932Z,102000.66
2023-05-03T11:55:54.413Z,102002.13
2023-05-03T11:58:24.914Z,102004.19
2023-05-03T12:00:54.960Z,101998.59
2023-05-03T12:03:30.842Z,102002.50
2023-05-03T12:06:02.810Z,102002.00
2023-05-03T12:08:36.092Z,102001.16
2023-05-03T12:11:09.475Z,102006.34
2023-05-03T12:13:40.718Z,102012.13
2023-05-03T12:16:14.726Z,102014.75
2023-05-03T12:18:51.719Z,102020.16
2023-05-03T12:23:55.924Z,102020.88
2023-05-03T12:26:27.496Z,102030.03
2023-05-03T12:28:57.205Z,102023.28
2023-05-03T12:31:29.105Z,102034.09
2023-05-03T12:34:30.971Z,102031.47
2023-05-03T12:36:49.181Z,102039.22
2023-05-03T12:39:21.708Z,102035.56
2023-05-03T12:44:24.205Z,102029.16
2023-05-03T12:46:53.686Z,102026.78
2023-05-03T12:49:24.418Z,102025.63
2023-05-03T12:52:11.114Z,102034.25
2023-05-03T12:54:42.816Z,102029.25
2023-05-03T12:57:15.396Z,102024.44
2023-05-03T12:59:52.227Z,102032.94
2023-05-03T13:04:59.579Z,102031.03
2023-05-03T13:07:32.218Z,102028.50
2023-05-03T13:12:36.279Z,102028.22
2023-05-03T13:15:06.314Z,102032.81
2023-05-03T13:17:35.829Z,102022.84
2023-05-03T13:20:08.227Z,102024.84
2023-05-03T13:22:37.445Z,102021.03
2023-05-03T13:25:07.239Z,102024.44
2023-05-03T13:27:36.277Z,102021.44
2023-05-03T13:30:06.071Z,102025.34
2023-05-03T13:32:35.018Z,102029.63
2023-05-03T13:35:05.468Z,102029.41
2023-05-03T13:37:38.669Z,102025.94
2023-05-03T13:40:08.255Z,102032.88
2023-05-03T13:42:37.490Z,102036.16
2023-05-03T13:45:06.826Z,102032.06
2023-05-03T13:47:53.553Z,102035.63
2023-05-03T13:50:26.051Z,102035.59
2023-05-03T13:52:57.656Z,102014.63
2023-05-03T13:55:27.100Z,102028.94
2023-05-03T13:57:56.404Z,102021.47
2023-05-03T14:00:25.134Z,102030.91
2023-05-03T14:02:55.671Z,102028.00
2023-05-03T14:05:24.587Z,102031.47
2023-05-03T14:07:53.656Z,102041.38
2023-05-03T14:10:23.882Z,102036.00
2023-05-03T14:12:53.301Z,102048.44
2023-05-03T14:15:22.309Z,102039.59
2023-05-03T14:17:51.423Z,102042.00
2023-05-03T14:20:20.632Z,102047.06
2023-05-03T14:22:50.733Z,102042.53
2023-05-03T14:25:19.679Z,102047.44
2023-05-03T14:27:50.121Z,102048.81
2023-05-03T14:30:19.102Z,102055.81
2023-05-03T14:32:48.251Z,102047.06
2023-05-03T14:35:18.377Z,102049.94
2023-05-03T14:37:47.771Z,102053.66
2023-05-03T14:40:17.739Z,102052.66
2023-05-03T14:42:46.847Z,102049.47
2023-05-03T14:45:16.977Z,102061.03
2023-05-03T14:47:46.234Z,102055.84
2023-05-03T14:50:15.703Z,102065.72
2023-05-03T14:52:46.247Z,102068.41
2023-05-03T14:55:14.989Z,102069.00
2023-05-03T14:57:44.189Z,102075.94
2023-05-03T15:00:15.080Z,102068.88
2023-05-03T15:02:46.798Z,102069.00
2023-05-03T15:05:15.715Z,102071.84
2023-05-03T15:07:44.924Z,102067.31
2023-05-03T15:10:13.646Z,102063.66
2023-05-03T15:12:43.101Z,102065.91
2023-05-03T15:15:12.306Z,102063.94
2023-05-03T15:17:41.405Z,102067.03
2023-05-03T15:20:13.915Z,102069.78
2023-05-03T15:22:43.216Z,102059.59
2023-05-03T15:25:12.184Z,102060.78
2023-05-03T15:27:41.413Z,102061.75
2023-05-03T15:30:12.270Z,102062.09
2023-05-03T15:32:42.879Z,102064.19
2023-05-03T15:35:13.239Z,102067.22
2023-05-03T15:37:42.482Z,102063.34
2023-05-03T15:40:11.942Z,102064.75
2023-05-03T15:42:41.255Z,102068.53
2023-05-03T15:45:10.935Z,102063.13
2023-05-03T15:47:40.219Z,102071.44
2023-05-03T15:50:09.551Z,102069.72
2023-05-03T15:52:40.598Z,102066.19
2023-05-03T15:55:10.236Z,102075.03
2023-05-03T15:57:39.788Z,102066.03
2023-05-03T16:00:11.807Z,102072.31
2023-05-03T16:02:41.241Z,102079.91
2023-05-03T16:05:11.177Z,102074.06
2023-05-03T16:07:41.840Z,102082.28
2023-05-03T16:10:11.098Z,102090.66
2023-05-03T16:12:40.918Z,102082.41
2023-05-03T16:15:12.349Z,102079.41
2023-05-03T16:17:41.650Z,102076.66
2023-05-03T16:20:11.686Z,102081.34
2023-05-03T16:22:42.383Z,102080.03
2023-05-03T16:25:11.724Z,102075.59
2023-05-03T16:27:40.978Z,102082.03
2023-05-03T16:30:10.990Z,102079.41
2023-05-03T16:32:40.533Z,102075.47
2023-05-03T16:35:09.851Z,102074.50
2023-05-03T16:37:40.783Z,102077.28
2023-05-03T16:40:11.721Z,102070.44
2023-05-03T16:42:42.739Z,102068.56
2023-05-03T16:45:13.063Z,102071.66
2023-05-03T16:47:42.298Z,102068.03
2023-05-03T16:50:11.225Z,102069.59
2023-05-03T16:52:41.109Z,102070.53
2023-05-03T16:55:12.577Z,102071.06
2023-05-03T16:57:45.105Z,102070.41
2023-05-03T17:00:16.945Z,102077.88
2023-05-03T17:02:46.495Z,102063.59
2023-05-03T17:05:15.377Z,102062.75
2023-05-03T17:07:47.615Z,102073.66
2023-05-03T17:10:17.972Z,102076.50
2023-05-03T17:12:48.754Z,102077.88
2023-05-03T17:15:17.759Z,102067.72
2023-05-03T17:17:47.078Z,102071.69
2023-05-03T17:20:16.539Z,102060.69
2023-05-03T17:22:48.412Z,102064.25
2023-05-03T17:25:19.276Z,102066.16
2023-05-03T17:27:48.565Z,102071.31
2023-05-03T17:30:20.799Z,102077.31
2023-05-03T17:32:50.590Z,102074.56
2023-05-03T17:35:19.453Z,102075.28
2023-05-03T17:37:49.074Z,102079.41
2023-05-03T17:40:21.909Z,102077.53
2023-05-03T17:42:51.697Z,102083.97
2023-05-03T17:45:22.682Z,102082.44
2023-05-03T17:47:53.078Z,102079.38
2023-05-03T17:50:21.877Z,102082.47
2023-05-03T17:52:51.543Z,102084.69
2023-05-03T17:55:23.880Z,102086.84
2023-05-03T17:57:53.658Z,102086.69
2023-05-03T18:00:28.016Z,102088.06
2023-05-03T18:02:58.585Z,102081.47
2023-05-03T18:05:28.045Z,102086.34
2023-05-03T18:07:59.965Z,102090.34
2023-05-03T18:10:30.460Z,102096.97
2023-05-03T18:13:00.821Z,102097.44
2023-05-03T18:15:29.737Z,102103.25
2023-05-03T18:17:59.007Z,102101.00
2023-05-03T18:20:28.453Z,102102.34
2023-05-03T18:22:57.504Z,102097.31
2023-05-03T18:25:27.095Z,102103.09
2023-05-03T18:27:58.262Z,102104.22
2023-05-03T18:30:28.408Z,102110.00
2023-05-03T18:33:00.369Z,102101.41
2023-05-03T18:35:31.049Z,102096.44
2023-05-03T18:38:00.754Z,102106.56
2023-05-03T18:40:30.762Z,102101.50
2023-05-03T18:43:01.413Z,102109.88
2023-05-03T18:45:30.659Z,102113.75
2023-05-03T18:48:01.071Z,102107.78
2023-05-03T18:50:29.856Z,102109.78
2023-05-03T18:52:59.033Z,102122.63
2023-05-03T18:55:27.832Z,102120.25
2023-05-03T18:57:59.663Z,102113.47
2023-05-03T19:00:31.643Z,102125.44
2023-05-03T19:03:03.176Z,102121.28
2023-05-03T19:05:32.122Z,102117.94
2023-05-03T19:08:01.226Z,102118.16
2023-05-03T19:10:32.341Z,102121.03
2023-05-03T19:13:03.022Z,102120.41
2023-05-03T19:15:36.968Z,102121.66
2023-05-03T19:18:06.498Z,102111.03
2023-05-03T19:20:35.472Z,102116.53
2023-05-03T19:23:04.816Z,102114.97
2023-05-03T19:25:35.131Z,102114.44
2023-05-03T19:28:06.794Z,102112.97
2023-05-03T19:30:41.290Z,102105.13
2023-05-03T19:33:10.636Z,102109.63
2023-05-03T19:35:40.794Z,102104.28
2023-05-03T19:38:10.710Z,102108.84
2023-05-03T19:40:39.780Z,102117.06
2023-05-03T19:43:08.999Z,102115.44
2023-05-03T19:45:43.958Z,102119.38
2023-05-03T19:48:14.608Z,102112.44
2023-05-03T19:50:44.728Z,102112.59
2023-05-03T19:53:13.913Z,102109.16
2023-05-03T19:55:42.928Z,102105.81
2023-05-03T19:58:12.151Z,102102.34
2023-05-03T20:00:40.952Z,102102.50
2023-05-03T20:03:12.117Z,102102.69
2023-05-03T20:05:41.327Z,102103.72
2023-05-03T20:08:10.672Z,102110.06
2023-05-03T20:10:39.909Z,102110.13
2023-05-03T20:13:11.547Z,102117.31
2023-05-03T20:15:41.466Z,102108.47
2023-05-03T20:18:12.049Z,102107.66
2023-05-03T20:20:43.184Z,102106.91
2023-05-03T20:23:12.949Z,102114.91
2023-05-03T20:25:43.611Z,102112.31
2023-05-03T20:28:16.751Z,102117.72
2023-05-03T20:30:45.736Z,102110.59
2023-05-03T20:33:16.464Z,102105.34
2023-05-03T20:35:45.380Z,102107.16
2023-05-03T20:38:14.480Z,102112.56
2023-05-03T20:40:43.579Z,102117.06
2023-05-03T20:43:14.730Z,102112.66
2023-05-03T20:45:44.432Z,102110.03
2023-05-03T20:48:14.654Z,102120.75
2023-05-03T20:50:45.024Z,102122.53
2023-05-03T20:53:14.173Z,102114.59
2023-05-03T20:55:43.145Z,102117.25
2023-05-03T20:58:15.315Z,102115.53
2023-05-03T21:00:44.260Z,102120.00
2023-05-03T21:03:13.375Z,102112.94
2023-05-03T21:05:44.942Z,102112.97
2023-05-03T21:08:14.157Z,102113.84
2023-05-03T21:10:43.101Z,102113.91
2023-05-03T21:13:12.372Z,102117.44
2023-05-03T21:15:42.500Z,102108.59
2023-05-03T21:18:11.818Z,102102.41
2023-05-03T21:20:40.584Z,102107.75
2023-05-03T21:23:10.994Z,102108.66
2023-05-03T21:25:39.867Z,102108.69
2023-05-03T21:28:08.983Z,102105.13
2023-05-03T21:30:38.168Z,102100.75
2023-05-03T21:33:07.306Z,102099.84
2023-05-03T21:35:38.621Z,102107.81
2023-05-03T21:38:07.923Z,102111.34
2023-05-03T21:40:38.054Z,102112.25
2023-05-03T21:43:09.281Z,102109.59
2023-05-03T21:45:38.266Z,102108.72
2023-05-03T21:48:07.503Z,102113.09
2023-05-03T21:50:38.628Z,102113.06
2023-05-03T21:53:08.013Z,102108.66
2023-05-03T21:55:38.134Z,102106.00
2023-05-03T21:58:07.331Z,102111.28
2023-05-03T22:00:36.385Z,102113.06
2023-05-03T22:03:05.755Z,102113.03
2023-05-03T22:05:34.616Z,102110.34
2023-05-03T22:08:03.662Z,102116.47
2023-05-03T22:10:32.526Z,102110.31
2023-05-03T22:13:03.017Z,102119.16
2023-05-03T22:15:32.103Z,102110.28
2023-05-03T22:18:01.298Z,102108.44
2023-05-03T22:20:30.470Z,102111.94
2023-05-03T22:22:59.535Z,102103.97
2023-05-03T22:25:32.090Z,102107.50
2023-05-03T22:28:03.074Z,102104.81
2023-05-03T22:30:32.087Z,102106.53
2023-05-03T22:33:01.290Z,102118.03
2023-05-03T22:35:30.218Z,102105.59
2023-05-03T22:37:59.835Z,102110.97
2023-05-03T22:40:28.771Z,102100.34
2023-05-03T22:42:57.857Z,102102.97
2023-05-03T22:45:28.056Z,102096.72
2023-05-03T22:47:57.293Z,102101.97
2023-05-03T22:50:26.152Z,102100.09
2023-05-03T22:52:55.335Z,102111.59
2023-05-03T22:55:24.080Z,102103.66
2023-05-03T22:57:53.266Z,102104.47
2023-05-03T23:00:22.452Z,102109.78
2023-05-03T23:02:53.039Z,102105.25
2023-05-03T23:05:22.261Z,102105.25
2023-05-03T23:07:51.344Z,102109.59
2023-05-03T23:10:20.196Z,102101.72
2023-05-03T23:12:50.149Z,102099.97
2023-05-03T23:15:19.197Z,102094.63
2023-05-03T23:17:48.305Z,102091.97
2023-05-03T23:20:18.603Z,102089.28
2023-05-03T23:22:48.316Z,102094.56
2023-05-03T23:25:17.236Z,102084.84
2023-05-03T23:27:46.732Z,102089.25
2023-05-03T23:30:15.982Z,102086.50
2023-05-03T23:32:46.722Z,102088.22
2023-05-03T23:35:16.255Z,102080.28
2023-05-03T23:37:47.103Z,102084.63
2023-05-03T23:40:15.932Z,102080.19
2023-05-03T23:42:46.403Z,102081.91
2023-05-03T23:45:15.153Z,102080.13
2023-05-03T23:47:44.366Z,102078.34
2023-05-03T23:50:13.106Z,102074.75
2023-05-03T23:52:42.796Z,102078.28
2023-05-03T23:55:13.235Z,102072.84
2023-05-03T23:57:42.402Z,102071.13
